createdAt,value
2023-02-03T00:02:04.280Z,97894.22
2023-02-03T00:04:31.240Z,97900.19
2023-02-03T00:06:58.282Z,97899.63
2023-02-03T00:09:25.967Z,97903.97
2023-02-03T00:11:53.872Z,97911.09
2023-02-03T00:14:20.762Z,97918.91
2023-02-03T00:16:47.806Z,97918.84
2023-02-03T00:19:17.307Z,97922.59
2023-02-03T00:21:44.808Z,97915.03
2023-02-03T00:24:11.922Z,97916.09
2023-02-03T00:26:42.910Z,97910.09
2023-02-03T00:29:10.210Z,97899.41
2023-02-03T00:31:37.395Z,97900.25
2023-02-03T00:34:06.105Z,97901.09
2023-02-03T00:36:33.430Z,97892.59
2023-02-03T00:39:01.540Z,97891.16
2023-02-03T00:41:31.641Z,97889.88
2023-02-03T00:43:59.029Z,97896.47
2023-02-03T00:46:26.120Z,97899.19
2023-02-03T00:48:53.177Z,97898.22
2023-02-03T00:51:20.111Z,97901.25
2023-02-03T00:53:47.986Z,97897.53
2023-02-03T00:56:15.246Z,97885.47
2023-02-03T00:58:42.375Z,97884.75
2023-02-03T01:01:10.637Z,97891.34
2023-02-03T01:03:37.968Z,97888.63
2023-02-03T01:06:12.251Z,97888.78
2023-02-03T01:08:39.450Z,97884.63
2023-02-03T01:11:11.061Z,97882.03
2023-02-03T01:13:38.061Z,97887.09
2023-02-03T01:16:11.010Z,97891.44
2023-02-03T01:18:38.300Z,97892.97
2023-02-03T01:21:11.464Z,97899.53
2023-02-03T01:23:38.382Z,97899.69
2023-02-03T01:26:07.465Z,97900.09
2023-02-03T01:28:34.851Z,97910.00
2023-02-03T01:31:24.575Z,97911.09
2023-02-03T01:33:55.538Z,97908.94
2023-02-03T01:36:26.403Z,97915.25
2023-02-03T01:38:54.508Z,97901.53
2023-02-03T01:41:25.371Z,97895.03
2023-02-03T01:43:55.234Z,97901.75
2023-02-03T01:46:28.637Z,97902.44
2023-02-03T01:49:29.861Z,97902.03
2023-02-03T01:51:57.040Z,97893.97
2023-02-03T01:54:29.745Z,97896.47
2023-02-03T01:57:06.442Z,97900.88
2023-02-03T01:59:34.909Z,97901.72
2023-02-03T02:02:04.249Z,97899.97
2023-02-03T02:04:56.858Z,97905.00
2023-02-03T02:07:25.245Z,97899.91
2023-02-03T02:09:52.451Z,97899.81
2023-02-03T02:12:19.359Z,97908.50
2023-02-03T02:14:48.083Z,97904.38
2023-02-03T02:17:33.485Z,97905.00
2023-02-03T02:20:20.742Z,97899.75
2023-02-03T02:23:22.961Z,97909.31
2023-02-03T02:25:52.455Z,97918.03
2023-02-03T02:28:41.895Z,97917.56
2023-02-03T02:31:17.974Z,97920.28
2023-02-03T02:34:02.639Z,97924.88
2023-02-03T02:36:50.779Z,97932.53
2023-02-03T02:39:29.944Z,97916.00
2023-02-03T02:42:01.572Z,97923.47
2023-02-03T02:45:01.094Z,97920.53
2023-02-03T02:47:28.643Z,97928.63
2023-02-03T02:50:03.855Z,97922.34
2023-02-03T02:52:34.359Z,97933.28
2023-02-03T02:55:10.240Z,97936.84
2023-02-03T02:57:39.328Z,97934.06
2023-02-03T03:00:07.652Z,97936.16
2023-02-03T03:02:36.480Z,97937.47
2023-02-03T03:05:08.056Z,97937.06
2023-02-03T03:07:51.451Z,97941.09
2023-02-03T03:10:24.811Z,97928.63
2023-02-03T03:12:59.577Z,97933.09
2023-02-03T03:15:31.166Z,97927.25
2023-02-03T03:18:04.991Z,97933.97
2023-02-03T03:20:33.975Z,97924.56
2023-02-03T03:23:07.174Z,97932.06
2023-02-03T03:25:43.447Z,97935.72
2023-02-03T03:28:16.458Z,97933.50
2023-02-03T03:30:43.932Z,97937.38
2023-02-03T03:33:10.977Z,97940.09
2023-02-03T03:35:45.902Z,97933.97
2023-02-03T03:38:25.228Z,97949.84
2023-02-03T03:41:00.591Z,97942.38
2023-02-03T03:43:32.483Z,97946.94
2023-02-03T03:46:11.767Z,97944.06
2023-02-03T03:49:01.854Z,97962.13
2023-02-03T03:51:35.184Z,97966.38
2023-02-03T03:54:06.000Z,97963.38
2023-02-03T03:56:40.585Z,97956.75
2023-02-03T03:59:10.134Z,97950.94
2023-02-03T04:01:38.784Z,97953.25
2023-02-03T04:04:09.558Z,97965.00
2023-02-03T04:06:39.238Z,97961.31
2023-02-03T04:09:06.736Z,97955.59
2023-02-03T04:11:52.081Z,97970.44
2023-02-03T04:14:19.093Z,97985.13
2023-02-03T04:16:46.093Z,98004.56
2023-02-03T04:19:13.055Z,98009.44
2023-02-03T04:21:40.139Z,98008.09
2023-02-03T04:24:07.497Z,98011.34
2023-02-03T04:26:34.463Z,98010.84
2023-02-03T04:29:01.371Z,98013.03
2023-02-03T04:31:28.382Z,98022.97
2023-02-03T04:33:55.435Z,98014.25
2023-02-03T04:36:22.382Z,98017.78
2023-02-03T04:38:50.055Z,98014.88
2023-02-03T04:41:17.223Z,98020.66
2023-02-03T04:43:44.324Z,98015.28
2023-02-03T04:46:11.443Z,98012.50
2023-02-03T04:48:38.696Z,98024.56
2023-02-03T04:51:07.520Z,98017.66
2023-02-03T04:53:35.568Z,98032.97
2023-02-03T04:56:02.494Z,98021.59
2023-02-03T04:58:29.422Z,98027.28
2023-02-03T05:00:56.435Z,98025.91
2023-02-03T05:03:25.810Z,98026.50
2023-02-03T05:05:56.530Z,98044.19
2023-02-03T05:08:23.467Z,98046.97
2023-02-03T05:10:50.356Z,98052.41
2023-02-03T05:13:17.407Z,98053.72
2023-02-03T05:15:44.254Z,98059.69
2023-02-03T05:18:11.176Z,98061.38
2023-02-03T05:20:38.082Z,98062.31
2023-02-03T05:23:04.979Z,98060.31
2023-02-03T05:25:32.157Z,98058.81
2023-02-03T05:27:59.193Z,98069.00
2023-02-03T05:30:26.492Z,98073.59
2023-02-03T05:32:53.772Z,98080.31
2023-02-03T05:35:20.770Z,98086.97
2023-02-03T05:37:49.156Z,98082.66
2023-02-03T05:40:34.566Z,98087.59
2023-02-03T05:43:01.513Z,98082.03
2023-02-03T05:45:28.499Z,98086.75
2023-02-03T05:47:55.432Z,98085.25
2023-02-03T05:50:23.027Z,98097.56
2023-02-03T05:52:50.669Z,98089.63
2023-02-03T05:55:17.684Z,98091.16
2023-02-03T05:57:44.620Z,98097.69
2023-02-03T06:00:12.250Z,98095.13
2023-02-03T06:02:39.155Z,98087.25
2023-02-03T06:05:06.559Z,98097.00
2023-02-03T06:07:33.455Z,98093.38
2023-02-03T06:10:00.333Z,98092.25
2023-02-03T06:12:29.135Z,98093.75
2023-02-03T06:14:56.293Z,98112.22
2023-02-03T06:17:23.343Z,98116.66
2023-02-03T06:19:50.241Z,98121.97
2023-02-03T06:22:17.134Z,98124.75
2023-02-03T06:24:46.266Z,98125.28
2023-02-03T06:27:13.187Z,98119.09
2023-02-03T06:29:41.268Z,98113.56
2023-02-03T06:32:08.992Z,98113.34
2023-02-03T06:34:36.326Z,98115.84
2023-02-03T06:37:03.473Z,98121.69
2023-02-03T06:39:30.435Z,98115.94
2023-02-03T06:41:57.404Z,98131.13
2023-02-03T06:44:24.327Z,98135.38
2023-02-03T06:46:51.405Z,98141.75
2023-02-03T06:49:19.019Z,98146.69
2023-02-03T06:51:46.616Z,98135.38
2023-02-03T06:54:14.199Z,98142.91
2023-02-03T06:56:41.394Z,98142.53
2023-02-03T06:59:09.095Z,98152.34
2023-02-03T07:01:37.039Z,98155.94
2023-02-03T07:04:04.774Z,98147.13
2023-02-03T07:06:34.179Z,98156.91
2023-02-03T07:09:02.978Z,98150.56
2023-02-03T07:11:31.006Z,98149.28
2023-02-03T07:13:58.170Z,98146.94
2023-02-03T07:16:25.337Z,98151.13
2023-02-03T07:18:52.260Z,98157.31
2023-02-03T07:21:19.487Z,98155.91
2023-02-03T07:23:49.896Z,98151.09
2023-02-03T07:26:17.863Z,98149.47
2023-02-03T07:28:45.347Z,98150.50
2023-02-03T07:31:12.386Z,98150.56
2023-02-03T07:33:39.951Z,98162.69
2023-02-03T07:36:08.058Z,98143.03
2023-02-03T07:38:35.044Z,98144.13
2023-02-03T07:41:01.948Z,98144.13
2023-02-03T07:43:29.210Z,98150.31
2023-02-03T07:45:56.153Z,98148.38
2023-02-03T07:48:23.348Z,98153.72
2023-02-03T07:50:50.978Z,98158.84
2023-02-03T07:53:17.922Z,98165.91
2023-02-03T07:55:44.894Z,98162.97
2023-02-03T07:58:11.898Z,98155.03
2023-02-03T08:00:38.854Z,98155.84
2023-02-03T08:03:05.732Z,98158.94
2023-02-03T08:05:33.048Z,98164.19
2023-02-03T08:08:00.309Z,98174.81
2023-02-03T08:10:27.577Z,98185.88
2023-02-03T08:12:56.062Z,98187.25
2023-02-03T08:15:22.989Z,98191.41
2023-02-03T08:17:50.308Z,98181.16
2023-02-03T08:20:17.718Z,98200.09
2023-02-03T08:22:45.206Z,98198.00
2023-02-03T08:25:12.838Z,98198.16
2023-02-03T08:27:40.780Z,98208.59
2023-02-03T08:30:10.381Z,98192.72
2023-02-03T08:32:37.323Z,98191.47
2023-02-03T08:35:04.567Z,98191.22
2023-02-03T08:37:32.823Z,98193.09
2023-02-03T08:40:00.230Z,98193.25
2023-02-03T08:42:27.499Z,98182.81
2023-02-03T08:44:54.408Z,98192.34
2023-02-03T08:47:21.457Z,98191.41
2023-02-03T08:49:48.464Z,98199.28
2023-02-03T08:52:18.056Z,98217.81
2023-02-03T08:54:46.961Z,98213.16
2023-02-03T08:57:14.091Z,98216.22
2023-02-03T08:59:43.076Z,98212.13
2023-02-03T09:02:15.638Z,98213.31
2023-02-03T09:04:42.799Z,98217.03
2023-02-03T09:07:09.891Z,98218.69
2023-02-03T09:09:37.621Z,98221.13
2023-02-03T09:12:07.313Z,98213.13
2023-02-03T09:14:35.132Z,98205.97
2023-02-03T09:17:04.127Z,98207.22
2023-02-03T09:19:34.277Z,98211.13
2023-02-03T09:22:02.234Z,98210.94
2023-02-03T09:24:29.371Z,98214.69
2023-02-03T09:26:57.316Z,98219.25
2023-02-03T09:29:24.421Z,98220.88
2023-02-03T09:31:53.028Z,98213.78
2023-02-03T09:34:21.028Z,98211.00
2023-02-03T09:36:48.225Z,98210.75
2023-02-03T09:39:15.923Z,98208.50
2023-02-03T09:41:51.578Z,98219.81
2023-02-03T10:17:23.678Z,98217.34
2023-02-03T10:20:02.908Z,98212.00
2023-02-03T10:22:32.498Z,98212.00
2023-02-03T10:25:08.389Z,98210.22
2023-02-03T10:27:37.543Z,98213.06
2023-02-03T10:30:16.184Z,98207.28
2023-02-03T10:32:43.191Z,98219.63
2023-02-03T10:35:13.675Z,98217.34
2023-02-03T10:37:48.303Z,98216.97
2023-02-03T10:40:17.242Z,98216.53
2023-02-03T10:43:06.941Z,98212.13
2023-02-03T10:45:37.780Z,98212.75
2023-02-03T10:48:07.402Z,98206.75
2023-02-03T10:50:35.843Z,98208.25
2023-02-03T10:53:32.606Z,98214.94
2023-02-03T10:56:09.156Z,98217.47
2023-02-03T10:58:39.430Z,98223.16
2023-02-03T11:01:14.252Z,98223.06
2023-02-03T11:03:55.210Z,98213.84
2023-02-03T11:06:22.250Z,98214.38
2023-02-03T11:08:51.364Z,98209.03
2023-02-03T11:11:34.276Z,98208.94
2023-02-03T11:14:13.239Z,98203.81
2023-02-03T11:16:43.409Z,98205.16
2023-02-03T11:19:21.301Z,98199.66
2023-02-03T11:21:51.864Z,98213.59
2023-02-03T11:24:26.764Z,98208.66
2023-02-03T11:27:14.846Z,98198.78
2023-02-03T11:29:47.875Z,98202.63
2023-02-03T11:32:36.157Z,98207.44
2023-02-03T11:35:23.744Z,98204.75
2023-02-03T11:37:52.149Z,98212.81
2023-02-03T11:40:22.172Z,98202.47
2023-02-03T11:42:49.020Z,98205.97
2023-02-03T11:45:26.822Z,98211.63
2023-02-03T11:47:58.611Z,98214.06
2023-02-03T11:50:28.779Z,98215.78
2023-02-03T11:53:22.918Z,98213.59
2023-02-03T11:55:59.059Z,98205.84
2023-02-03T11:58:50.561Z,98209.81
2023-02-03T12:01:25.844Z,98206.78
2023-02-03T12:04:17.008Z,98210.56
2023-02-03T12:06:43.983Z,98210.75
2023-02-03T12:09:35.800Z,98214.31
2023-02-03T12:12:17.953Z,98209.72
2023-02-03T12:15:06.030Z,98205.97
2023-02-03T12:17:35.607Z,98205.47
2023-02-03T12:20:02.489Z,98208.34
2023-02-03T12:22:51.876Z,98203.50
2023-02-03T12:25:41.525Z,98206.41
2023-02-03T12:28:23.727Z,98201.28
2023-02-03T12:31:09.587Z,98206.81
2023-02-03T12:33:45.000Z,98205.06
2023-02-03T12:36:18.935Z,98207.78
2023-02-03T12:39:05.816Z,98210.88
2023-02-03T12:41:38.455Z,98211.81
2023-02-03T12:44:14.205Z,98210.38
2023-02-03T12:46:47.596Z,98210.47
2023-02-03T12:49:23.704Z,98211.63
2023-02-03T12:52:00.366Z,98218.19
2023-02-03T12:55:08.630Z,98216.78
2023-02-03T12:57:35.486Z,98215.97
2023-02-03T13:00:27.147Z,98202.44
2023-02-03T13:03:09.188Z,98199.75
2023-02-03T13:05:44.018Z,98199.09
2023-02-03T13:08:23.015Z,98199.44
2023-02-03T13:10:57.265Z,98194.34
2023-02-03T13:13:35.026Z,98184.75
2023-02-03T13:16:08.118Z,98191.72
2023-02-03T13:18:39.014Z,98184.53
2023-02-03T13:21:06.092Z,98188.81
2023-02-03T13:23:33.086Z,98185.56
2023-02-03T13:26:30.971Z,98186.00
2023-02-03T13:29:13.160Z,98191.91
2023-02-03T13:32:00.683Z,98179.72
2023-02-03T13:34:53.661Z,98178.38
2023-02-03T13:37:45.356Z,98179.72
2023-02-03T13:40:36.575Z,98174.94
2023-02-03T13:43:11.434Z,98172.72
2023-02-03T13:45:45.372Z,98171.28
2023-02-03T13:48:23.602Z,98179.72
2023-02-03T13:51:02.757Z,98181.41
2023-02-03T13:53:36.399Z,98174.97
2023-02-03T13:56:06.727Z,98179.22
2023-02-03T13:58:37.367Z,98185.25
2023-02-03T14:01:31.052Z,98184.13
2023-02-03T14:03:58.596Z,98187.03
2023-02-03T14:06:40.827Z,98180.16
2023-02-03T14:09:24.336Z,98182.63
2023-02-03T14:11:52.199Z,98186.22
2023-02-03T14:14:20.876Z,98189.00
2023-02-03T14:16:54.290Z,98189.81
2023-02-03T14:19:21.689Z,98183.59
2023-02-03T14:21:53.369Z,98186.41
2023-02-03T14:24:21.864Z,98194.41
2023-02-03T14:26:52.256Z,98200.88
2023-02-03T14:29:29.661Z,98199.00
2023-02-03T14:32:08.084Z,98194.38
2023-02-03T14:34:38.958Z,98192.81
2023-02-03T14:37:24.103Z,98193.38
2023-02-03T14:40:23.454Z,98195.03
2023-02-03T14:43:09.437Z,98200.78
2023-02-03T14:45:55.014Z,98202.91
2023-02-03T14:48:40.941Z,98202.72
2023-02-03T14:51:25.192Z,98203.47
2023-02-03T14:53:59.983Z,98201.88
2023-02-03T14:57:32.886Z,98199.00
2023-02-03T15:00:02.459Z,98214.94
2023-02-03T15:02:31.376Z,98211.88
2023-02-03T15:05:18.528Z,98216.63
2023-02-03T15:07:49.496Z,98229.53
2023-02-03T15:10:27.047Z,98229.66
2023-02-03T15:12:57.095Z,98242.09
2023-02-03T15:15:28.377Z,98238.56
2023-02-03T15:17:58.114Z,98234.00
2023-02-03T15:20:41.632Z,98222.97
2023-02-03T15:23:22.631Z,98221.22
2023-02-03T15:25:58.320Z,98211.47
2023-02-03T15:28:27.362Z,98209.81
2023-02-03T15:30:57.980Z,98204.47
2023-02-03T15:33:25.415Z,98201.81
2023-02-03T15:36:02.021Z,98198.38
2023-02-03T15:38:42.164Z,98195.41
2023-02-03T15:41:20.926Z,98190.91
2023-02-03T15:43:52.465Z,98194.41
2023-02-03T15:46:37.435Z,98187.75
2023-02-03T15:49:16.616Z,98194.59
2023-02-03T15:51:49.993Z,98195.22
2023-02-03T15:54:24.964Z,98192.97
2023-02-03T15:57:10.976Z,98195.56
2023-02-03T15:59:52.569Z,98195.06
2023-02-03T16:02:22.080Z,98199.66
2023-02-03T16:04:50.894Z,98196.78
2023-02-03T16:07:30.146Z,98189.59
2023-02-03T16:09:58.849Z,98187.31
2023-02-03T16:12:33.431Z,98187.88
2023-02-03T16:15:02.038Z,98187.69
2023-02-03T16:17:33.976Z,98186.06
2023-02-03T16:20:13.324Z,98185.38
2023-02-03T16:22:41.287Z,98189.22
2023-02-03T16:25:20.301Z,98183.03
2023-02-03T16:28:20.802Z,98179.03
2023-02-03T16:31:19.573Z,98178.81
2023-02-03T16:34:07.702Z,98178.97
2023-02-03T16:36:59.472Z,98176.63
2023-02-03T16:39:45.786Z,98176.94
2023-02-03T16:42:37.275Z,98176.25
2023-02-03T16:45:31.540Z,98168.09
2023-02-03T16:48:17.709Z,98172.97
2023-02-03T16:50:58.245Z,98177.75
2023-02-03T16:53:32.297Z,98176.50
2023-02-03T16:56:01.916Z,98183.72
2023-02-03T16:58:28.889Z,98182.97
2023-02-03T17:00:58.154Z,98180.50
2023-02-03T17:03:27.527Z,98182.22
2023-02-03T17:05:55.643Z,98185.94
2023-02-03T17:08:25.430Z,98176.63
2023-02-03T17:10:52.662Z,98168.88
2023-02-03T17:13:21.613Z,98174.53
2023-02-03T17:15:52.847Z,98172.03
2023-02-03T17:18:19.945Z,98168.25
2023-02-03T17:20:47.702Z,98164.84
2023-02-03T17:23:18.076Z,98162.47
2023-02-03T17:25:47.558Z,98179.88
2023-02-03T17:28:14.766Z,98179.44
2023-02-03T17:30:42.705Z,98172.75
2023-02-03T17:33:13.563Z,98177.78
2023-02-03T17:35:45.081Z,98168.69
2023-02-03T17:38:14.129Z,98175.34
2023-02-03T17:54:33.133Z,98156.81
2023-02-03T17:57:00.084Z,98150.50
2023-02-03T17:59:27.156Z,98146.59
2023-02-03T18:01:54.220Z,98154.53
2023-02-03T18:04:21.196Z,98157.44
2023-02-03T18:06:48.171Z,98153.88
2023-02-03T18:09:16.792Z,98147.22
2023-02-03T18:11:45.890Z,98140.97
2023-02-03T18:14:15.128Z,98142.56
2023-02-03T18:16:42.798Z,98141.16
2023-02-03T18:19:14.350Z,98128.34
2023-02-03T18:21:42.924Z,98131.13
2023-02-03T18:24:12.039Z,98127.44
2023-02-03T18:26:51.119Z,98127.94
2023-02-03T18:29:18.747Z,98126.66
2023-02-03T18:31:46.374Z,98117.81
2023-02-03T18:34:13.821Z,98113.50
2023-02-03T18:39:14.778Z,98091.59
2023-02-03T18:41:42.396Z,98080.66
2023-02-03T18:44:09.669Z,98081.69
2023-02-03T18:46:36.828Z,98081.50
2023-02-03T18:49:04.116Z,98080.09
2023-02-03T18:51:31.074Z,98077.94
2023-02-03T18:53:59.680Z,98078.19
2023-02-03T18:56:35.341Z,98077.16
2023-02-03T18:59:08.828Z,98070.91
2023-02-03T19:01:39.008Z,98069.41
2023-02-03T19:04:06.568Z,98063.84
2023-02-03T19:06:34.923Z,98066.75
2023-02-03T19:09:02.568Z,98061.28
2023-02-03T19:11:29.928Z,98069.00
2023-02-03T19:13:57.093Z,98067.97
2023-02-03T19:16:24.111Z,98072.56
2023-02-03T19:18:51.328Z,98077.47
2023-02-03T19:21:18.466Z,98078.47
2023-02-03T19:23:45.649Z,98075.69
2023-02-03T19:26:12.652Z,98072.59
2023-02-03T19:28:41.185Z,98062.69
2023-02-03T19:31:11.344Z,98068.19
2023-02-03T19:33:39.070Z,98067.56
2023-02-03T19:36:07.008Z,98070.75
2023-02-03T19:38:34.612Z,98068.75
2023-02-03T19:41:02.681Z,98060.09
2023-02-03T19:43:33.219Z,98056.88
2023-02-03T19:46:00.600Z,98057.09
2023-02-03T19:48:28.491Z,98057.09
2023-02-03T19:50:56.041Z,98053.81
2023-02-03T19:53:24.480Z,98058.63
2023-02-03T19:55:51.654Z,98042.16
2023-02-03T19:58:19.020Z,98042.84
2023-02-03T20:00:46.163Z,98032.78
2023-02-03T20:03:13.364Z,98028.19
2023-02-03T20:05:40.664Z,98036.09
2023-02-03T20:08:07.868Z,98031.50
2023-02-03T20:10:34.898Z,98028.75
2023-02-03T20:13:01.810Z,98019.22
2023-02-03T20:15:28.830Z,98015.81
2023-02-03T20:17:56.365Z,98011.06
2023-02-03T20:20:23.392Z,98002.56
2023-02-03T20:22:50.577Z,98003.09
2023-02-03T20:25:18.547Z,98005.09
2023-02-03T20:27:45.741Z,98000.19
2023-02-03T20:30:13.216Z,97992.41
2023-02-03T20:32:40.183Z,97992.28
2023-02-03T20:35:07.596Z,97993.00
2023-02-03T20:37:36.289Z,97990.75
2023-02-03T20:40:12.450Z,97989.50
2023-02-03T20:42:39.454Z,97983.09
2023-02-03T20:45:13.908Z,97985.81
2023-02-03T20:47:41.014Z,97980.94
2023-02-03T20:50:18.550Z,97979.59
2023-02-03T20:52:47.014Z,97974.28
2023-02-03T20:55:19.208Z,97970.47
2023-02-03T20:57:50.380Z,97972.03
2023-02-03T21:00:20.672Z,97975.53
2023-02-03T21:03:06.052Z,97973.03
2023-02-03T21:05:36.867Z,97963.72
2023-02-03T21:08:14.735Z,97956.22
2023-02-03T21:10:42.331Z,97956.41
2023-02-03T21:13:29.908Z,97946.75
2023-02-03T21:16:04.617Z,97939.53
2023-02-03T21:18:55.165Z,97944.78
2023-02-03T21:21:35.044Z,97945.19
2023-02-03T21:24:16.993Z,97942.34
2023-02-03T21:26:43.995Z,97946.66
2023-02-03T21:29:24.517Z,97945.06
2023-02-03T21:31:52.776Z,97936.69
2023-02-03T21:34:27.743Z,97943.47
2023-02-03T21:36:56.032Z,97938.84
2023-02-03T21:39:33.360Z,97929.72
2023-02-03T21:42:43.814Z,97926.91
2023-02-03T21:45:17.151Z,97922.31
2023-02-03T21:47:45.566Z,97923.63
2023-02-03T21:50:33.285Z,97909.63
2023-02-03T21:53:09.494Z,97907.44
2023-02-03T21:55:37.815Z,97904.50
2023-02-03T21:58:17.288Z,97909.09
2023-02-03T22:00:48.191Z,97891.88
2023-02-03T22:03:27.231Z,97897.09
2023-02-03T22:06:06.073Z,97892.94
2023-02-03T22:08:36.851Z,97887.75
2023-02-03T22:11:04.263Z,97880.63
2023-02-03T22:13:31.365Z,97880.31
2023-02-03T22:15:58.384Z,97879.66
2023-02-03T22:18:26.114Z,97862.69
2023-02-03T22:20:53.807Z,97862.72
2023-02-03T22:23:21.157Z,97857.28
2023-02-03T22:25:48.278Z,97847.00
2023-02-03T22:28:15.616Z,97852.28
2023-02-03T22:30:42.770Z,97843.41
2023-02-03T22:33:09.718Z,97837.66
2023-02-03T22:35:36.711Z,97834.59
2023-02-03T22:38:03.722Z,97834.97
2023-02-03T22:40:30.898Z,97832.38
2023-02-03T22:42:58.091Z,97832.00
2023-02-03T22:45:24.979Z,97822.28
2023-02-03T22:47:51.900Z,97818.69
2023-02-03T22:50:27.427Z,97816.94
2023-02-03T22:53:04.268Z,97804.31
2023-02-03T22:55:31.704Z,97800.97
2023-02-03T22:57:59.414Z,97807.59
2023-02-03T23:00:27.085Z,97797.16
2023-02-03T23:02:54.489Z,97789.41
2023-02-03T23:05:22.180Z,97786.81
2023-02-03T23:07:49.835Z,97785.72
2023-02-03T23:10:26.364Z,97780.06
2023-02-03T23:12:53.195Z,97775.91
2023-02-03T23:15:20.300Z,97770.84
2023-02-03T23:17:47.280Z,97777.94
2023-02-03T23:20:16.171Z,97766.84
2023-02-03T23:22:43.845Z,97763.63
2023-02-03T23:25:12.209Z,97752.31
2023-02-03T23:27:39.341Z,97760.81
2023-02-03T23:30:06.797Z,97761.84
2023-02-03T23:32:33.955Z,97756.69
2023-02-03T23:35:19.859Z,97761.19
2023-02-03T23:37:46.840Z,97750.31
2023-02-03T23:40:14.106Z,97737.91
2023-02-03T23:42:41.200Z,97741.63
2023-02-03T23:45:11.815Z,97732.00
2023-02-03T23:47:40.679Z,97739.03
2023-02-03T23:50:09.686Z,97732.41
2023-02-03T23:52:37.326Z,97742.06
2023-02-03T23:55:10.345Z,97736.13
2023-02-03T23:57:37.485Z,97742.00
